sensor_id;sensor_type;location;lat;lon;timestamp;temperature;humidity
22471;DHT22;11402;51.374;6.594;2023-03-01T00:00:38;0.80;99.90
22471;DHT22;11402;51.374;6.594;2023-03-01T00:03:04;0.70;99.90
22471;DHT22;11402;51.374;6.594;2023-03-01T00:05:29;0.70;99.90
22471;DHT22;11402;51.374;6.594;2023-03-01T00:07:55;0.90;99.90
22471;DHT22;11402;51.374;6.594;2023-03-01T00:10:20;0.80;99.90
22471;DHT22;11402;51.374;6.594;2023-03-01T00:12:46;0.70;99.90
22471;DHT22;11402;51.374;6.594;2023-03-01T00:15:12;0.50;99.90
22471;DHT22;11402;51.374;6.594;2023-03-01T00:17:37;0.50;99.90
22471;DHT22;11402;51.374;6.594;2023-03-01T00:20:04;0.50;99.90
22471;DHT22;11402;51.374;6.594;2023-03-01T00:22:33;0.50;99.90
22471;DHT22;11402;51.374;6.594;2023-03-01T00:24:58;0.40;99.90
22471;DHT22;11402;51.374;6.594;2023-03-01T00:27:24;0.40;99.90
22471;DHT22;11402;51.374;6.594;2023-03-01T00:29:49;0.30;99.90
22471;DHT22;11402;51.374;6.594;2023-03-01T00:32:15;0.30;99.90
22471;DHT22;11402;51.374;6.594;2023-03-01T00:34:40;0.30;99.90
22471;DHT22;11402;51.374;6.594;2023-03-01T00:37:06;0.40;99.90
22471;DHT22;11402;51.374;6.594;2023-03-01T00:39:32;0.50;99.90
22471;DHT22;11402;51.374;6.594;2023-03-01T00:41:58;0.40;99.90
22471;DHT22;11402;51.374;6.594;2023-03-01T00:44:24;0.30;99.90
22471;DHT22;11402;51.374;6.594;2023-03-01T00:46:49;0.30;99.90
22471;DHT22;11402;51.374;6.594;2023-03-01T00:49:15;0.30;99.90
22471;DHT22;11402;51.374;6.594;2023-03-01T00:51:40;0.30;99.90
22471;DHT22;11402;51.374;6.594;2023-03-01T00:54:09;0.30;99.90
22471;DHT22;11402;51.374;6.594;2023-03-01T00:56:35;0.60;99.90
22471;DHT22;11402;51.374;6.594;2023-03-01T00:59:01;0.50;99.90
22471;DHT22;11402;51.374;6.594;2023-03-01T01:01:28;0.50;99.90
22471;DHT22;11402;51.374;6.594;2023-03-01T01:04:02;0.50;99.90
22471;DHT22;11402;51.374;6.594;2023-03-01T01:06:30;0.50;99.90
22471;DHT22;11402;51.374;6.594;2023-03-01T01:08:56;0.50;99.90
22471;DHT22;11402;51.374;6.594;2023-03-01T01:11:24;0.50;99.90
22471;DHT22;11402;51.374;6.594;2023-03-01T01:13:51;0.40;99.90
22471;DHT22;11402;51.374;6.594;2023-03-01T01:16:18;0.40;99.90
22471;DHT22;11402;51.374;6.594;2023-03-01T01:18:44;0.30;99.90
22471;DHT22;11402;51.374;6.594;2023-03-01T01:21:13;0.40;99.90
22471;DHT22;11402;51.374;6.594;2023-03-01T01:23:40;0.60;99.90
22471;DHT22;11402;51.374;6.594;2023-03-01T01:26:24;0.70;99.90
22471;DHT22;11402;51.374;6.594;2023-03-01T01:28:50;0.70;99.90
22471;DHT22;11402;51.374;6.594;2023-03-01T01:31:16;0.60;99.90
22471;DHT22;11402;51.374;6.594;2023-03-01T01:33:42;0.60;99.90
22471;DHT22;11402;51.374;6.594;2023-03-01T01:36:09;0.40;99.90
22471;DHT22;11402;51.374;6.594;2023-03-01T01:38:35;0.40;99.90
22471;DHT22;11402;51.374;6.594;2023-03-01T01:41:01;0.50;99.90
22471;DHT22;11402;51.374;6.594;2023-03-01T01:43:34;0.40;99.90
22471;DHT22;11402;51.374;6.594;2023-03-01T01:46:04;0.30;99.90
22471;DHT22;11402;51.374;6.594;2023-03-01T01:48:45;0.40;99.90
22471;DHT22;11402;51.374;6.594;2023-03-01T01:51:16;0.30;99.90
22471;DHT22;11402;51.374;6.594;2023-03-01T01:53:44;0.50;99.90
22471;DHT22;11402;51.374;6.594;2023-03-01T01:56:13;0.50;99.90
22471;DHT22;11402;51.374;6.594;2023-03-01T01:58:41;0.60;99.90
22471;DHT22;11402;51.374;6.594;2023-03-01T02:01:07;0.50;99.90
22471;DHT22;11402;51.374;6.594;2023-03-01T02:03:34;0.40;99.90
22471;DHT22;11402;51.374;6.594;2023-03-01T02:06:19;0.40;99.90
22471;DHT22;11402;51.374;6.594;2023-03-01T02:08:48;0.10;99.90
22471;DHT22;11402;51.374;6.594;2023-03-01T02:11:14;0.00;99.90
22471;DHT22;11402;51.374;6.594;2023-03-01T02:13:40;0.10;99.90
22471;DHT22;11402;51.374;6.594;2023-03-01T02:16:12;0.00;99.90
22471;DHT22;11402;51.374;6.594;2023-03-01T02:18:40;0.00;99.90
22471;DHT22;11402;51.374;6.594;2023-03-01T02:23:56;0.10;99.90
22471;DHT22;11402;51.374;6.594;2023-03-01T02:26:56;-0.20;99.90
22471;DHT22;11402;51.374;6.594;2023-03-01T02:29:15;-0.10;99.90
22471;DHT22;11402;51.374;6.594;2023-03-01T02:31:41;-0.10;99.90
22471;DHT22;11402;51.374;6.594;2023-03-01T02:34:11;-0.20;99.90
22471;DHT22;11402;51.374;6.594;2023-03-01T02:37:01;-0.20;99.90
22471;DHT22;11402;51.374;6.594;2023-03-01T02:39:33;0.00;99.90
22471;DHT22;11402;51.374;6.594;2023-03-01T02:41:59;0.00;99.90
22471;DHT22;11402;51.374;6.594;2023-03-01T02:44:26;0.10;99.90
22471;DHT22;11402;51.374;6.594;2023-03-01T02:46:54;0.30;99.90
22471;DHT22;11402;51.374;6.594;2023-03-01T02:49:27;0.50;99.90
22471;DHT22;11402;51.374;6.594;2023-03-01T02:54:47;0.30;99.90
22471;DHT22;11402;51.374;6.594;2023-03-01T02:57:14;0.00;99.90
22471;DHT22;11402;51.374;6.594;2023-03-01T02:59:40;-0.20;99.90
22471;DHT22;11402;51.374;6.594;2023-03-01T03:02:19;-0.10;99.90
22471;DHT22;11402;51.374;6.594;2023-03-01T03:05:05;-0.10;99.90
22471;DHT22;11402;51.374;6.594;2023-03-01T03:07:34;-0.10;99.90
22471;DHT22;11402;51.374;6.594;2023-03-01T03:10:00;-0.20;99.90
22471;DHT22;11402;51.374;6.594;2023-03-01T03:12:26;-0.30;99.90
22471;DHT22;11402;51.374;6.594;2023-03-01T03:14:51;-0.30;99.90
22471;DHT22;11402;51.374;6.594;2023-03-01T03:17:17;-0.20;99.90
22471;DHT22;11402;51.374;6.594;2023-03-01T03:19:43;-0.20;99.90
22471;DHT22;11402;51.374;6.594;2023-03-01T03:22:11;-0.20;99.90
22471;DHT22;11402;51.374;6.594;2023-03-01T03:24:37;-0.40;99.90
22471;DHT22;11402;51.374;6.594;2023-03-01T03:27:03;-0.30;99.90
22471;DHT22;11402;51.374;6.594;2023-03-01T03:29:29;-0.30;99.90
22471;DHT22;11402;51.374;6.594;2023-03-01T03:31:54;-0.20;99.90
22471;DHT22;11402;51.374;6.594;2023-03-01T03:34:20;-0.30;99.90
22471;DHT22;11402;51.374;6.594;2023-03-01T03:36:45;-0.40;99.90
22471;DHT22;11402;51.374;6.594;2023-03-01T03:39:11;-0.30;99.90
22471;DHT22;11402;51.374;6.594;2023-03-01T03:41:36;-0.10;99.90
22471;DHT22;11402;51.374;6.594;2023-03-01T03:44:02;0.00;99.90
22471;DHT22;11402;51.374;6.594;2023-03-01T03:46:28;-0.20;99.90
22471;DHT22;11402;51.374;6.594;2023-03-01T03:48:53;-0.10;99.90
22471;DHT22;11402;51.374;6.594;2023-03-01T03:51:19;-0.10;99.90
22471;DHT22;11402;51.374;6.594;2023-03-01T03:53:45;-0.30;99.90
22471;DHT22;11402;51.374;6.594;2023-03-01T03:56:11;-0.40;99.90
22471;DHT22;11402;51.374;6.594;2023-03-01T03:58:37;-0.40;99.90
22471;DHT22;11402;51.374;6.594;2023-03-01T04:01:03;-0.40;99.90
22471;DHT22;11402;51.374;6.594;2023-03-01T04:03:30;-0.60;99.90
22471;DHT22;11402;51.374;6.594;2023-03-01T04:05:58;-0.40;99.90
22471;DHT22;11402;51.374;6.594;2023-03-01T04:08:24;-0.50;99.90
22471;DHT22;11402;51.374;6.594;2023-03-01T04:10:52;-0.40;99.90
22471;DHT22;11402;51.374;6.594;2023-03-01T04:13:20;-0.30;99.90
22471;DHT22;11402;51.374;6.594;2023-03-01T04:15:48;-0.10;99.90
22471;DHT22;11402;51.374;6.594;2023-03-01T04:18:16;-0.30;99.90
22471;DHT22;11402;51.374;6.594;2023-03-01T04:20:42;-0.30;99.90
22471;DHT22;11402;51.374;6.594;2023-03-01T04:23:15;-0.10;99.90
22471;DHT22;11402;51.374;6.594;2023-03-01T04:25:49;-0.20;99.90
22471;DHT22;11402;51.374;6.594;2023-03-01T04:28:20;-0.20;99.90
22471;DHT22;11402;51.374;6.594;2023-03-01T04:30:46;-0.50;99.90
22471;DHT22;11402;51.374;6.594;2023-03-01T04:33:12;-0.70;99.90
22471;DHT22;11402;51.374;6.594;2023-03-01T04:35:38;-0.90;99.90
22471;DHT22;11402;51.374;6.594;2023-03-01T04:38:05;-0.90;99.90
22471;DHT22;11402;51.374;6.594;2023-03-01T04:40:31;-1.10;99.90
22471;DHT22;11402;51.374;6.594;2023-03-01T04:42:56;-1.10;99.90
22471;DHT22;11402;51.374;6.594;2023-03-01T04:45:23;-1.10;99.90
22471;DHT22;11402;51.374;6.594;2023-03-01T04:47:48;-1.20;99.90
22471;DHT22;11402;51.374;6.594;2023-03-01T04:50:16;-1.20;99.90
22471;DHT22;11402;51.374;6.594;2023-03-01T04:52:43;-1.20;99.90
22471;DHT22;11402;51.374;6.594;2023-03-01T04:55:09;-1.00;99.90
22471;DHT22;11402;51.374;6.594;2023-03-01T04:57:35;-0.90;99.90
22471;DHT22;11402;51.374;6.594;2023-03-01T05:00:01;-1.10;99.90
22471;DHT22;11402;51.374;6.594;2023-03-01T05:02:26;-0.90;99.90
22471;DHT22;11402;51.374;6.594;2023-03-01T05:04:52;-0.80;99.90
22471;DHT22;11402;51.374;6.594;2023-03-01T05:07:17;-0.90;99.90
22471;DHT22;11402;51.374;6.594;2023-03-01T05:09:48;-0.90;99.90
22471;DHT22;11402;51.374;6.594;2023-03-01T05:12:14;-1.00;99.90
22471;DHT22;11402;51.374;6.594;2023-03-01T05:14:41;-0.90;99.90
22471;DHT22;11402;51.374;6.594;2023-03-01T05:17:07;-1.10;99.90
22471;DHT22;11402;51.374;6.594;2023-03-01T05:19:33;-0.90;99.90
22471;DHT22;11402;51.374;6.594;2023-03-01T05:21:59;-0.70;99.90
22471;DHT22;11402;51.374;6.594;2023-03-01T05:24:33;-0.70;99.90
22471;DHT22;11402;51.374;6.594;2023-03-01T05:26:59;-0.70;99.90
22471;DHT22;11402;51.374;6.594;2023-03-01T05:29:27;-0.80;99.90
22471;DHT22;11402;51.374;6.594;2023-03-01T05:31:55;-0.70;99.90
22471;DHT22;11402;51.374;6.594;2023-03-01T05:34:29;-0.80;99.90
22471;DHT22;11402;51.374;6.594;2023-03-01T05:36:55;-0.80;99.90
22471;DHT22;11402;51.374;6.594;2023-03-01T05:39:22;-0.90;99.90
22471;DHT22;11402;51.374;6.594;2023-03-01T05:41:52;-0.80;99.90
22471;DHT22;11402;51.374;6.594;2023-03-01T05:44:18;-1.00;99.90
22471;DHT22;11402;51.374;6.594;2023-03-01T05:46:44;-1.00;99.90
22471;DHT22;11402;51.374;6.594;2023-03-01T05:49:10;-1.00;99.90
22471;DHT22;11402;51.374;6.594;2023-03-01T05:51:36;-0.90;99.90
22471;DHT22;11402;51.374;6.594;2023-03-01T05:54:02;-1.00;99.90
22471;DHT22;11402;51.374;6.594;2023-03-01T05:56:27;-1.00;99.90
22471;DHT22;11402;51.374;6.594;2023-03-01T05:58:53;-1.10;99.90
22471;DHT22;11402;51.374;6.594;2023-03-01T06:01:18;-1.10;99.90
22471;DHT22;11402;51.374;6.594;2023-03-01T06:03:44;-1.20;99.90
22471;DHT22;11402;51.374;6.594;2023-03-01T06:06:09;-1.10;99.90
22471;DHT22;11402;51.374;6.594;2023-03-01T06:08:35;-1.20;99.90
22471;DHT22;11402;51.374;6.594;2023-03-01T06:11:00;-1.30;99.90
22471;DHT22;11402;51.374;6.594;2023-03-01T06:13:26;-1.30;99.90
22471;DHT22;11402;51.374;6.594;2023-03-01T06:15:52;-1.20;99.90
22471;DHT22;11402;51.374;6.594;2023-03-01T06:18:17;-1.20;99.90
22471;DHT22;11402;51.374;6.594;2023-03-01T06:20:43;-1.20;99.90
22471;DHT22;11402;51.374;6.594;2023-03-01T06:23:08;-1.30;99.90
22471;DHT22;11402;51.374;6.594;2023-03-01T06:25:34;-1.30;99.90
22471;DHT22;11402;51.374;6.594;2023-03-01T06:28:00;-1.30;99.90
22471;DHT22;11402;51.374;6.594;2023-03-01T06:30:26;-1.20;99.90
22471;DHT22;11402;51.374;6.594;2023-03-01T06:32:52;-1.20;99.90
22471;DHT22;11402;51.374;6.594;2023-03-01T06:35:19;-1.20;99.90
22471;DHT22;11402;51.374;6.594;2023-03-01T06:37:45;-1.20;99.90
22471;DHT22;11402;51.374;6.594;2023-03-01T06:40:11;-1.00;99.90
22471;DHT22;11402;51.374;6.594;2023-03-01T06:42:42;-0.80;99.90
22471;DHT22;11402;51.374;6.594;2023-03-01T06:45:09;-0.60;99.90
22471;DHT22;11402;51.374;6.594;2023-03-01T06:47:34;-0.80;99.90
22471;DHT22;11402;51.374;6.594;2023-03-01T06:50:01;-1.00;99.90
22471;DHT22;11402;51.374;6.594;2023-03-01T06:52:27;-1.10;99.90
22471;DHT22;11402;51.374;6.594;2023-03-01T06:54:52;-0.90;99.90
22471;DHT22;11402;51.374;6.594;2023-03-01T06:57:18;-0.80;99.90
22471;DHT22;11402;51.374;6.594;2023-03-01T06:59:43;-0.90;99.90
22471;DHT22;11402;51.374;6.594;2023-03-01T07:02:13;-1.00;99.90
22471;DHT22;11402;51.374;6.594;2023-03-01T07:04:40;-1.00;99.90
22471;DHT22;11402;51.374;6.594;2023-03-01T07:07:06;-0.90;99.90
22471;DHT22;11402;51.374;6.594;2023-03-01T07:09:32;-0.90;99.90
22471;DHT22;11402;51.374;6.594;2023-03-01T07:11:57;-1.00;99.90
22471;DHT22;11402;51.374;6.594;2023-03-01T07:14:23;-0.90;99.90
22471;DHT22;11402;51.374;6.594;2023-03-01T07:16:55;-0.70;99.90
22471;DHT22;11402;51.374;6.594;2023-03-01T07:19:21;-0.70;99.90
22471;DHT22;11402;51.374;6.594;2023-03-01T07:21:47;-0.60;99.90
22471;DHT22;11402;51.374;6.594;2023-03-01T07:24:12;-0.60;99.90
22471;DHT22;11402;51.374;6.594;2023-03-01T07:26:38;-0.50;99.90
22471;DHT22;11402;51.374;6.594;2023-03-01T07:29:05;-0.50;99.90
22471;DHT22;11402;51.374;6.594;2023-03-01T07:31:31;-0.40;99.90
22471;DHT22;11402;51.374;6.594;2023-03-01T07:33:57;-0.40;99.90
22471;DHT22;11402;51.374;6.594;2023-03-01T07:36:22;-0.20;99.90
22471;DHT22;11402;51.374;6.594;2023-03-01T07:38:48;-0.10;99.90
22471;DHT22;11402;51.374;6.594;2023-03-01T07:41:14;-0.20;99.90
22471;DHT22;11402;51.374;6.594;2023-03-01T07:43:40;-0.10;99.90
22471;DHT22;11402;51.374;6.594;2023-03-01T07:46:06;0.10;99.90
22471;DHT22;11402;51.374;6.594;2023-03-01T07:48:33;0.10;99.90
22471;DHT22;11402;51.374;6.594;2023-03-01T07:51:00;0.10;99.90
22471;DHT22;11402;51.374;6.594;2023-03-01T07:53:26;0.10;99.90
22471;DHT22;11402;51.374;6.594;2023-03-01T07:56:01;0.10;99.90
22471;DHT22;11402;51.374;6.594;2023-03-01T07:58:27;0.10;99.90
22471;DHT22;11402;51.374;6.594;2023-03-01T08:00:52;0.10;99.90
22471;DHT22;11402;51.374;6.594;2023-03-01T08:03:18;0.30;99.90
22471;DHT22;11402;51.374;6.594;2023-03-01T08:05:43;0.40;99.90
22471;DHT22;11402;51.374;6.594;2023-03-01T08:08:09;0.60;99.90
22471;DHT22;11402;51.374;6.594;2023-03-01T08:10:36;0.60;99.90
22471;DHT22;11402;51.374;6.594;2023-03-01T08:13:01;0.50;99.90
22471;DHT22;11402;51.374;6.594;2023-03-01T08:15:27;0.60;99.90
22471;DHT22;11402;51.374;6.594;2023-03-01T08:17:53;0.70;99.90
22471;DHT22;11402;51.374;6.594;2023-03-01T08:20:18;0.80;99.90
22471;DHT22;11402;51.374;6.594;2023-03-01T08:22:44;1.00;99.90
22471;DHT22;11402;51.374;6.594;2023-03-01T08:25:09;1.10;99.90
22471;DHT22;11402;51.374;6.594;2023-03-01T08:27:35;1.20;99.90
22471;DHT22;11402;51.374;6.594;2023-03-01T08:30:00;1.40;99.90
22471;DHT22;11402;51.374;6.594;2023-03-01T08:32:26;1.50;99.90
22471;DHT22;11402;51.374;6.594;2023-03-01T08:34:53;1.50;99.90
22471;DHT22;11402;51.374;6.594;2023-03-01T08:37:18;1.50;99.90
22471;DHT22;11402;51.374;6.594;2023-03-01T08:39:44;1.60;99.90
22471;DHT22;11402;51.374;6.594;2023-03-01T08:42:09;1.60;99.90
22471;DHT22;11402;51.374;6.594;2023-03-01T08:44:35;1.70;99.90
22471;DHT22;11402;51.374;6.594;2023-03-01T08:47:00;1.80;99.90
22471;DHT22;11402;51.374;6.594;2023-03-01T08:49:27;1.80;99.90
22471;DHT22;11402;51.374;6.594;2023-03-01T08:51:53;2.00;99.90
22471;DHT22;11402;51.374;6.594;2023-03-01T08:54:21;1.90;99.90
22471;DHT22;11402;51.374;6.594;2023-03-01T08:56:47;1.90;99.90
22471;DHT22;11402;51.374;6.594;2023-03-01T08:59:14;2.00;99.90
22471;DHT22;11402;51.374;6.594;2023-03-01T09:01:40;2.00;99.90
22471;DHT22;11402;51.374;6.594;2023-03-01T09:04:09;2.10;99.90
22471;DHT22;11402;51.374;6.594;2023-03-01T09:06:35;2.20;99.90
22471;DHT22;11402;51.374;6.594;2023-03-01T09:09:01;2.30;99.90
22471;DHT22;11402;51.374;6.594;2023-03-01T09:11:28;2.30;99.90
22471;DHT22;11402;51.374;6.594;2023-03-01T09:13:54;2.30;99.90
22471;DHT22;11402;51.374;6.594;2023-03-01T09:16:21;2.40;99.90
22471;DHT22;11402;51.374;6.594;2023-03-01T09:18:53;2.50;99.90
22471;DHT22;11402;51.374;6.594;2023-03-01T09:21:20;2.50;99.90
22471;DHT22;11402;51.374;6.594;2023-03-01T09:23:48;2.60;99.90
22471;DHT22;11402;51.374;6.594;2023-03-01T09:26:19;2.60;99.90
22471;DHT22;11402;51.374;6.594;2023-03-01T09:28:46;2.70;99.90
22471;DHT22;11402;51.374;6.594;2023-03-01T09:31:13;2.70;99.90
22471;DHT22;11402;51.374;6.594;2023-03-01T09:33:41;2.70;99.90
22471;DHT22;11402;51.374;6.594;2023-03-01T09:36:13;2.80;99.90
22471;DHT22;11402;51.374;6.594;2023-03-01T09:38:39;2.90;99.90
22471;DHT22;11402;51.374;6.594;2023-03-01T09:43:59;3.00;99.90
22471;DHT22;11402;51.374;6.594;2023-03-01T09:46:26;3.00;99.90
22471;DHT22;11402;51.374;6.594;2023-03-01T09:48:57;3.20;99.90
22471;DHT22;11402;51.374;6.594;2023-03-01T09:51:31;3.20;99.90
22471;DHT22;11402;51.374;6.594;2023-03-01T09:53:58;3.20;99.90
22471;DHT22;11402;51.374;6.594;2023-03-01T09:56:33;3.20;99.90
22471;DHT22;11402;51.374;6.594;2023-03-01T10:04:48;3.40;99.90
22471;DHT22;11402;51.374;6.594;2023-03-01T10:07:29;3.50;99.90
22471;DHT22;11402;51.374;6.594;2023-03-01T10:09:58;3.50;99.90
22471;DHT22;11402;51.374;6.594;2023-03-01T10:12:32;3.80;99.90
22471;DHT22;11402;51.374;6.594;2023-03-01T10:15:09;3.80;99.90
22471;DHT22;11402;51.374;6.594;2023-03-01T10:17:51;3.80;99.90
22471;DHT22;11402;51.374;6.594;2023-03-01T10:20:54;3.70;99.90
22471;DHT22;11402;51.374;6.594;2023-03-01T10:23:26;3.70;99.90
22471;DHT22;11402;51.374;6.594;2023-03-01T10:31:20;4.00;99.90
22471;DHT22;11402;51.374;6.594;2023-03-01T10:33:47;4.00;99.90
22471;DHT22;11402;51.374;6.594;2023-03-01T10:36:16;4.00;99.90
22471;DHT22;11402;51.374;6.594;2023-03-01T10:38:54;4.10;99.90
22471;DHT22;11402;51.374;6.594;2023-03-01T10:41:21;4.00;99.90
22471;DHT22;11402;51.374;6.594;2023-03-01T10:43:56;4.20;99.90
22471;DHT22;11402;51.374;6.594;2023-03-01T10:46:26;4.10;99.90
22471;DHT22;11402;51.374;6.594;2023-03-01T10:49:14;4.10;99.90
22471;DHT22;11402;51.374;6.594;2023-03-01T10:51:42;4.10;99.90
22471;DHT22;11402;51.374;6.594;2023-03-01T10:54:20;4.20;99.90
22471;DHT22;11402;51.374;6.594;2023-03-01T10:56:51;4.30;99.90
22471;DHT22;11402;51.374;6.594;2023-03-01T10:59:36;4.40;99.90
22471;DHT22;11402;51.374;6.594;2023-03-01T11:02:23;4.50;99.90
22471;DHT22;11402;51.374;6.594;2023-03-01T11:05:16;4.50;99.90
22471;DHT22;11402;51.374;6.594;2023-03-01T11:07:55;4.50;99.90
22471;DHT22;11402;51.374;6.594;2023-03-01T11:10:33;4.40;99.90
22471;DHT22;11402;51.374;6.594;2023-03-01T11:13:15;4.50;99.90
22471;DHT22;11402;51.374;6.594;2023-03-01T11:15:41;4.60;99.90
22471;DHT22;11402;51.374;6.594;2023-03-01T11:18:23;4.60;99.90
22471;DHT22;11402;51.374;6.594;2023-03-01T11:20:51;4.80;99.90
22471;DHT22;11402;51.374;6.594;2023-03-01T11:23:18;4.70;99.90
22471;DHT22;11402;51.374;6.594;2023-03-01T11:25:57;4.80;99.90
22471;DHT22;11402;51.374;6.594;2023-03-01T11:28:25;4.70;99.90
22471;DHT22;11402;51.374;6.594;2023-03-01T11:31:06;4.80;99.90
22471;DHT22;11402;51.374;6.594;2023-03-01T11:33:47;4.80;99.90
22471;DHT22;11402;51.374;6.594;2023-03-01T11:39:34;4.90;99.90
22471;DHT22;11402;51.374;6.594;2023-03-01T11:42:18;4.90;99.90
22471;DHT22;11402;51.374;6.594;2023-03-01T11:44:48;5.10;99.90
22471;DHT22;11402;51.374;6.594;2023-03-01T11:50:15;5.00;99.90
22471;DHT22;11402;51.374;6.594;2023-03-01T12:14:29;5.50;99.90
22471;DHT22;11402;51.374;6.594;2023-03-01T12:23:12;5.60;99.90
22471;DHT22;11402;51.374;6.594;2023-03-01T12:28:30;5.60;99.90
22471;DHT22;11402;51.374;6.594;2023-03-01T12:34:14;5.60;99.90
22471;DHT22;11402;51.374;6.594;2023-03-01T12:37:11;5.60;99.90
22471;DHT22;11402;51.374;6.594;2023-03-01T12:39:47;5.70;99.90
22471;DHT22;11402;51.374;6.594;2023-03-01T12:48:34;5.70;99.90
22471;DHT22;11402;51.374;6.594;2023-03-01T12:51:07;5.80;99.90
22471;DHT22;11402;51.374;6.594;2023-03-01T12:56:45;5.70;99.90
22471;DHT22;11402;51.374;6.594;2023-03-01T12:59:58;5.80;99.90
22471;DHT22;11402;51.374;6.594;2023-03-01T13:08:16;5.90;99.90
22471;DHT22;11402;51.374;6.594;2023-03-01T13:11:01;6.10;99.90
22471;DHT22;11402;51.374;6.594;2023-03-01T13:13:29;6.10;99.90
22471;DHT22;11402;51.374;6.594;2023-03-01T13:15:56;6.10;99.90
22471;DHT22;11402;51.374;6.594;2023-03-01T13:20:50;6.10;99.90
22471;DHT22;11402;51.374;6.594;2023-03-01T13:31:09;6.30;99.90
22471;DHT22;11402;51.374;6.594;2023-03-01T13:33:48;6.10;99.90
22471;DHT22;11402;51.374;6.594;2023-03-01T13:46:53;6.40;99.90
22471;DHT22;11402;51.374;6.594;2023-03-01T13:49:23;6.30;99.90
22471;DHT22;11402;51.374;6.594;2023-03-01T13:51:51;6.30;99.90
22471;DHT22;11402;51.374;6.594;2023-03-01T13:54:29;6.30;99.90
22471;DHT22;11402;51.374;6.594;2023-03-01T13:56:58;6.40;99.90
22471;DHT22;11402;51.374;6.594;2023-03-01T14:02:46;6.50;99.90
22471;DHT22;11402;51.374;6.594;2023-03-01T14:05:24;6.50;99.90
22471;DHT22;11402;51.374;6.594;2023-03-01T14:07:51;6.50;99.90
22471;DHT22;11402;51.374;6.594;2023-03-01T14:10:17;6.50;99.90
22471;DHT22;11402;51.374;6.594;2023-03-01T14:12:55;6.50;99.90
22471;DHT22;11402;51.374;6.594;2023-03-01T14:15:39;6.60;99.90
22471;DHT22;11402;51.374;6.594;2023-03-01T14:18:25;6.50;99.90
22471;DHT22;11402;51.374;6.594;2023-03-01T14:20:55;6.50;99.90
22471;DHT22;11402;51.374;6.594;2023-03-01T14:23:22;6.50;99.90
22471;DHT22;11402;51.374;6.594;2023-03-01T14:25:51;6.50;99.90
22471;DHT22;11402;51.374;6.594;2023-03-01T14:30:54;6.40;99.90
22471;DHT22;11402;51.374;6.594;2023-03-01T14:33:29;6.50;99.90
22471;DHT22;11402;51.374;6.594;2023-03-01T14:35:58;6.50;99.90
22471;DHT22;11402;51.374;6.594;2023-03-01T14:38:39;6.50;99.90
22471;DHT22;11402;51.374;6.594;2023-03-01T14:41:13;6.60;99.90
22471;DHT22;11402;51.374;6.594;2023-03-01T14:43:51;6.60;99.90
22471;DHT22;11402;51.374;6.594;2023-03-01T14:46:41;6.50;99.90
22471;DHT22;11402;51.374;6.594;2023-03-01T14:49:19;6.50;99.90
22471;DHT22;11402;51.374;6.594;2023-03-01T14:52:02;6.60;99.90
22471;DHT22;11402;51.374;6.594;2023-03-01T14:54:41;6.60;99.90
22471;DHT22;11402;51.374;6.594;2023-03-01T14:57:25;6.60;99.90
22471;DHT22;11402;51.374;6.594;2023-03-01T14:59:57;6.70;99.90
22471;DHT22;11402;51.374;6.594;2023-03-01T15:02:25;6.60;99.90
22471;DHT22;11402;51.374;6.594;2023-03-01T15:04:59;6.60;99.90
22471;DHT22;11402;51.374;6.594;2023-03-01T15:07:32;6.60;99.90
22471;DHT22;11402;51.374;6.594;2023-03-01T15:09:59;6.50;99.90
22471;DHT22;11402;51.374;6.594;2023-03-01T15:14:55;6.50;99.90
22471;DHT22;11402;51.374;6.594;2023-03-01T15:17:36;6.50;99.90
22471;DHT22;11402;51.374;6.594;2023-03-01T15:20:13;6.50;99.90
22471;DHT22;11402;51.374;6.594;2023-03-01T15:22:44;6.60;99.90
22471;DHT22;11402;51.374;6.594;2023-03-01T15:25:29;6.60;99.90
22471;DHT22;11402;51.374;6.594;2023-03-01T15:27:57;6.50;99.90
22471;DHT22;11402;51.374;6.594;2023-03-01T15:30:24;6.50;99.90
22471;DHT22;11402;51.374;6.594;2023-03-01T15:35:50;6.50;99.90
22471;DHT22;11402;51.374;6.594;2023-03-01T15:38:34;6.50;99.90
22471;DHT22;11402;51.374;6.594;2023-03-01T15:41:05;6.60;99.90
22471;DHT22;11402;51.374;6.594;2023-03-01T15:43:46;6.50;99.90
22471;DHT22;11402;51.374;6.594;2023-03-01T15:46:31;6.40;99.90
22471;DHT22;11402;51.374;6.594;2023-03-01T15:49:03;6.40;99.90
22471;DHT22;11402;51.374;6.594;2023-03-01T15:51:36;6.50;99.90
22471;DHT22;11402;51.374;6.594;2023-03-01T15:54:21;6.40;99.90
22471;DHT22;11402;51.374;6.594;2023-03-01T15:56:47;6.40;99.90
22471;DHT22;11402;51.374;6.594;2023-03-01T15:59:13;6.40;99.90
22471;DHT22;11402;51.374;6.594;2023-03-01T16:01:40;6.40;99.90
22471;DHT22;11402;51.374;6.594;2023-03-01T16:04:05;6.40;99.90
22471;DHT22;11402;51.374;6.594;2023-03-01T16:06:31;6.30;99.90
22471;DHT22;11402;51.374;6.594;2023-03-01T16:08:57;6.30;99.90
22471;DHT22;11402;51.374;6.594;2023-03-01T16:11:22;6.40;99.90
22471;DHT22;11402;51.374;6.594;2023-03-01T16:13:48;6.30;99.90
22471;DHT22;11402;51.374;6.594;2023-03-01T16:16:16;6.30;99.90
22471;DHT22;11402;51.374;6.594;2023-03-01T16:18:43;6.30;99.90
22471;DHT22;11402;51.374;6.594;2023-03-01T16:21:14;6.20;99.90
22471;DHT22;11402;51.374;6.594;2023-03-01T16:23:42;6.20;99.90
22471;DHT22;11402;51.374;6.594;2023-03-01T16:26:07;6.30;99.90
22471;DHT22;11402;51.374;6.594;2023-03-01T16:28:33;6.20;99.90
22471;DHT22;11402;51.374;6.594;2023-03-01T16:30:59;6.20;99.90
22471;DHT22;11402;51.374;6.594;2023-03-01T16:33:26;6.10;99.90
22471;DHT22;11402;51.374;6.594;2023-03-01T16:35:52;6.10;99.90
22471;DHT22;11402;51.374;6.594;2023-03-01T16:38:18;6.00;99.90
22471;DHT22;11402;51.374;6.594;2023-03-01T16:40:48;6.00;99.90
22471;DHT22;11402;51.374;6.594;2023-03-01T16:43:14;6.00;99.90
22471;DHT22;11402;51.374;6.594;2023-03-01T16:45:39;6.00;99.90
22471;DHT22;11402;51.374;6.594;2023-03-01T16:48:06;6.00;99.90
22471;DHT22;11402;51.374;6.594;2023-03-01T16:50:31;5.90;99.90
22471;DHT22;11402;51.374;6.594;2023-03-01T16:52:57;5.90;99.90
22471;DHT22;11402;51.374;6.594;2023-03-01T16:55:23;5.90;99.90
22471;DHT22;11402;51.374;6.594;2023-03-01T16:57:49;6.00;99.90
22471;DHT22;11402;51.374;6.594;2023-03-01T17:00:15;5.80;99.90
22471;DHT22;11402;51.374;6.594;2023-03-01T17:02:41;5.80;99.90
22471;DHT22;11402;51.374;6.594;2023-03-01T17:05:07;5.80;99.90
22471;DHT22;11402;51.374;6.594;2023-03-01T17:07:33;5.70;99.90
22471;DHT22;11402;51.374;6.594;2023-03-01T17:10:00;5.70;99.90
22471;DHT22;11402;51.374;6.594;2023-03-01T17:12:26;5.70;99.90
22471;DHT22;11402;51.374;6.594;2023-03-01T17:14:52;5.60;99.90
22471;DHT22;11402;51.374;6.594;2023-03-01T17:17:18;5.40;99.90
22471;DHT22;11402;51.374;6.594;2023-03-01T17:19:44;5.50;99.90
22471;DHT22;11402;51.374;6.594;2023-03-01T17:22:10;5.50;99.90
22471;DHT22;11402;51.374;6.594;2023-03-01T17:24:39;5.40;99.90
22471;DHT22;11402;51.374;6.594;2023-03-01T17:27:06;5.30;99.90
22471;DHT22;11402;51.374;6.594;2023-03-01T17:29:31;5.30;99.90
22471;DHT22;11402;51.374;6.594;2023-03-01T17:31:57;5.20;99.90
22471;DHT22;11402;51.374;6.594;2023-03-01T17:34:24;5.10;99.90
22471;DHT22;11402;51.374;6.594;2023-03-01T17:36:50;5.20;99.90
22471;DHT22;11402;51.374;6.594;2023-03-01T17:39:17;5.40;99.90
22471;DHT22;11402;51.374;6.594;2023-03-01T17:41:44;5.30;99.90